Time;durP1;ratioP1;P1;durP2;ratioP2;P2;SDS_P1;SDS_P2;PMS_P1;PMS_P2;Temp;Humidity;BMP_temperature;BMP_pressure;BME280_temperature;BME280_humidity;BME280_pressure;Samples;Min_cycle;Max_cycle;Signal;HPM_P1;HPM_P2
2021/07/06 00:01:26;;;;;;;4.10;2.70;;;20.00;80.70;;;;;;5119855;28;20298;-83
2021/07/06 00:03:53;;;;;;;3.20;3.00;;;20.00;81.60;;;;;;5120260;28;20240;-83
2021/07/06 00:06:19;;;;;;;3.20;2.17;;;19.90;82.10;;;;;;5114019;28;20172;-83
2021/07/06 00:08:45;;;;;;;6.45;2.83;;;19.70;82.60;;;;;;5102708;28;20207;-83
2021/07/06 00:11:11;;;;;;;7.77;2.67;;;19.70;83.10;;;;;;5103095;28;20218;-83
2021/07/06 00:13:37;;;;;;;2.73;2.20;;;19.80;83.20;;;;;;5104995;28;20206;-83
2021/07/06 00:16:03;;;;;;;2.60;2.40;;;19.60;83.10;;;;;;5101191;28;20267;-84
2021/07/06 00:18:28;;;;;;;2.40;2.20;;;19.50;83.50;;;;;;5105711;28;20414;-83
2021/07/06 00:20:54;;;;;;;3.13;2.87;;;19.40;84.30;;;;;;5104679;28;20639;-83
2021/07/06 00:23:20;;;;;;;2.77;2.53;;;19.30;85.10;;;;;;5103118;28;20225;-83
2021/07/06 00:25:46;;;;;;;2.23;2.03;;;19.20;85.50;;;;;;5104346;28;20267;-84
2021/07/06 00:28:11;;;;;;;4.47;2.80;;;19.20;85.90;;;;;;5102745;28;20210;-83
2021/07/06 00:30:37;;;;;;;2.30;2.10;;;19.20;86.10;;;;;;5100959;28;20231;-83
2021/07/06 00:33:03;;;;;;;2.73;2.30;;;19.30;86.30;;;;;;5101284;28;20180;-83
2021/07/06 00:35:28;;;;;;;2.90;2.57;;;19.20;86.20;;;;;;5100525;28;20168;-84
2021/07/06 00:37:54;;;;;;;2.67;2.43;;;19.20;86.30;;;;;;5099652;28;20176;-83
2021/07/06 00:40:20;;;;;;;3.00;2.77;;;19.20;86.40;;;;;;5099165;28;20463;-84
2021/07/06 00:42:48;;;;;;;4.20;2.47;;;19.40;86.20;;;;;;5096507;28;20670;-83
2021/07/06 00:45:15;;;;;;;2.38;2.28;;;19.40;86.10;;;;;;5100197;28;20206;-83
2021/07/06 00:47:42;;;;;;;4.80;2.90;;;19.50;86.00;;;;;;5101994;28;20176;-83
2021/07/06 00:50:22;;;;;;;2.30;2.10;;;19.60;85.40;;;;;;5116533;28;20199;-84
2021/07/06 00:52:49;;;;;;;1.90;1.80;;;19.50;85.00;;;;;;5119767;28;20247;-84
2021/07/06 00:55:15;;;;;;;4.70;2.40;;;19.60;84.80;;;;;;5119810;28;20559;-84
2021/07/06 00:57:41;;;;;;;6.60;2.10;;;19.60;84.50;;;;;;5119031;28;20175;-84
2021/07/06 01:00:12;;;;;;;2.17;2.08;;;19.60;84.40;;;;;;5119858;28;20245;-83
2021/07/06 01:02:38;;;;;;;3.35;1.70;;;19.50;84.40;;;;;;5114789;28;20207;-84
2021/07/06 01:05:06;;;;;;;2.95;2.20;;;19.60;84.90;;;;;;5120595;28;20171;-83
2021/07/06 01:07:32;;;;;;;3.17;2.85;;;19.60;83.80;;;;;;5123723;28;20250;-83
2021/07/06 01:09:57;;;;;;;2.63;2.43;;;19.70;83.70;;;;;;5123370;28;20245;-83
2021/07/06 01:12:23;;;;;;;3.00;2.80;;;19.60;83.50;;;;;;5123305;28;20478;-84
2021/07/06 01:14:49;;;;;;;3.33;2.40;;;19.70;83.50;;;;;;5123851;28;20167;-84
2021/07/06 01:17:15;;;;;;;3.90;2.57;;;19.60;83.60;;;;;;5129449;28;20957;-83
2021/07/06 01:19:42;;;;;;;4.60;2.60;;;19.70;83.80;;;;;;5126159;28;20178;-83
2021/07/06 01:22:08;;;;;;;2.88;2.67;;;19.70;83.60;;;;;;5124129;27;20248;-83
2021/07/06 01:24:38;;;;;;;8.10;2.50;;;19.60;83.40;;;;;;5123174;28;20171;-84
2021/07/06 01:27:05;;;;;;;3.22;2.90;;;19.60;83.30;;;;;;5122864;28;20473;-83
2021/07/06 01:29:31;;;;;;;3.03;2.80;;;19.50;83.60;;;;;;5122431;28;20171;-83
2021/07/06 01:31:57;;;;;;;3.60;3.30;;;19.50;83.90;;;;;;5122186;28;20217;-83
2021/07/06 01:34:22;;;;;;;4.00;2.70;;;19.60;84.00;;;;;;5122551;28;20409;-83
2021/07/06 01:36:48;;;;;;;3.03;2.40;;;19.60;83.70;;;;;;5123948;28;20167;-83
2021/07/06 01:39:19;;;;;;;3.13;2.93;;;19.50;83.50;;;;;;5123079;28;20262;-83
2021/07/06 01:41:45;;;;;;;4.88;2.85;;;19.50;83.50;;;;;;5120918;28;20202;-83
2021/07/06 01:44:21;;;;;;;3.07;2.87;;;19.50;83.50;;;;;;5104402;28;20258;-83
2021/07/06 01:46:47;;;;;;;2.97;2.78;;;19.50;83.50;;;;;;5102780;28;20183;-83
2021/07/06 01:49:14;;;;;;;2.60;2.40;;;19.40;83.30;;;;;;5112014;28;20186;-83
2021/07/06 01:51:43;;;;;;;2.47;2.28;;;19.50;83.50;;;;;;5121595;28;20682;-83
2021/07/06 01:54:10;;;;;;;3.50;2.33;;;19.40;83.50;;;;;;5122315;28;20689;-83
2021/07/06 01:56:40;;;;;;;2.60;2.40;;;19.50;83.60;;;;;;5122572;28;20182;-83
2021/07/06 01:59:06;;;;;;;5.72;2.78;;;19.50;83.50;;;;;;5121544;28;20206;-83
2021/07/06 02:01:32;;;;;;;2.85;2.38;;;19.60;83.30;;;;;;5121002;28;20658;-83
2021/07/06 02:03:58;;;;;;;3.28;2.28;;;19.50;83.20;;;;;;5123684;28;20183;-83
2021/07/06 02:06:24;;;;;;;2.70;2.50;;;19.50;83.40;;;;;;5121964;28;20175;-83
2021/07/06 02:08:49;;;;;;;5.37;2.87;;;19.40;83.20;;;;;;5122042;28;20185;-83
2021/07/06 02:11:15;;;;;;;2.27;2.10;;;19.40;83.30;;;;;;5120767;28;20214;-83
2021/07/06 02:13:41;;;;;;;4.70;2.20;;;19.50;83.30;;;;;;5121773;28;20642;-83
2021/07/06 02:16:07;;;;;;;2.10;2.00;;;19.50;83.10;;;;;;5123620;28;20232;-83
2021/07/06 02:18:32;;;;;;;2.20;2.00;;;19.50;82.80;;;;;;5123182;28;20495;-83
2021/07/06 02:21:00;;;;;;;3.23;2.97;;;19.40;82.70;;;;;;5126262;28;20446;-83
2021/07/06 02:23:28;;;;;;;2.55;2.33;;;19.40;82.90;;;;;;5123211;28;20689;-83
2021/07/06 02:25:55;;;;;;;3.35;2.78;;;19.40;82.70;;;;;;5122725;28;20638;-83
2021/07/06 02:28:21;;;;;;;2.97;2.33;;;19.50;82.90;;;;;;5122169;28;20175;-83
2021/07/06 02:30:48;;;;;;;2.25;2.15;;;19.50;82.50;;;;;;5120710;28;20210;-83
2021/07/06 02:33:15;;;;;;;2.45;2.25;;;19.40;82.40;;;;;;5121892;28;20171;-83
2021/07/06 02:35:41;;;;;;;2.15;1.95;;;19.30;82.70;;;;;;5122082;28;20175;-83
2021/07/06 02:38:08;;;;;;;2.45;2.25;;;19.30;83.00;;;;;;5123478;28;20182;-83
2021/07/06 02:40:34;;;;;;;2.28;2.08;;;19.20;83.00;;;;;;5121436;28;20629;-84
2021/07/06 02:43:00;;;;;;;4.32;2.30;;;19.30;83.30;;;;;;5110333;28;20199;-83
2021/07/06 02:45:27;;;;;;;2.30;2.20;;;19.20;83.20;;;;;;5103035;28;20183;-83
2021/07/06 02:47:53;;;;;;;2.42;1.85;;;19.20;83.30;;;;;;5100653;28;20186;-83
2021/07/06 02:50:20;;;;;;;2.42;1.60;;;19.30;83.20;;;;;;5118249;28;20668;-83
2021/07/06 02:52:46;;;;;;;3.05;2.35;;;19.40;82.80;;;;;;5121035;28;20187;-83
2021/07/06 02:55:13;;;;;;;2.75;1.85;;;19.30;83.00;;;;;;5122332;28;20182;-83
2021/07/06 02:57:40;;;;;;;2.85;1.67;;;19.30;82.90;;;;;;5120839;28;20175;-83
2021/07/06 03:00:06;;;;;;;2.25;2.05;;;19.40;82.80;;;;;;5120794;28;20280;-83
2021/07/06 03:02:31;;;;;;;3.90;2.53;;;19.50;82.70;;;;;;5121600;28;20199;-84
2021/07/06 03:04:57;;;;;;;3.07;2.20;;;19.50;82.60;;;;;;5121418;28;20873;-83
2021/07/06 03:07:23;;;;;;;1.83;1.47;;;19.50;82.50;;;;;;5120378;28;20234;-83
2021/07/06 03:09:48;;;;;;;2.17;1.97;;;19.50;82.70;;;;;;5118993;28;20210;-83
2021/07/06 03:12:14;;;;;;;1.77;1.63;;;19.50;82.50;;;;;;5117726;28;20193;-83
2021/07/06 03:14:40;;;;;;;5.13;2.10;;;19.50;82.50;;;;;;5117341;28;20413;-83
2021/07/06 03:17:05;;;;;;;2.50;1.80;;;19.50;82.40;;;;;;5115828;28;20206;-83
2021/07/06 03:19:32;;;;;;;3.83;1.87;;;19.50;82.40;;;;;;5114140;28;20190;-83
2021/07/06 03:21:57;;;;;;;3.58;2.03;;;19.50;82.50;;;;;;5118832;28;20187;-83
2021/07/06 03:24:23;;;;;;;2.10;1.90;;;19.50;82.40;;;;;;5120573;28;20212;-83
2021/07/06 03:26:49;;;;;;;3.73;2.23;;;19.40;82.60;;;;;;5116586;28;20247;-84
2021/07/06 03:29:14;;;;;;;4.97;1.97;;;19.30;83.00;;;;;;5119472;28;20163;-84
2021/07/06 03:31:40;;;;;;;2.17;1.87;;;19.30;83.00;;;;;;5117027;28;20218;-83
2021/07/06 03:34:06;;;;;;;2.10;2.00;;;19.30;83.10;;;;;;5117599;28;20649;-84
2021/07/06 03:36:31;;;;;;;4.40;2.10;;;19.40;82.90;;;;;;5115594;28;20316;-84
2021/07/06 03:38:57;;;;;;;3.00;2.17;;;19.30;82.80;;;;;;5112607;28;20183;-84
2021/07/06 03:41:23;;;;;;;2.80;1.60;;;19.30;83.00;;;;;;5116231;28;20199;-84
2021/07/06 03:43:48;;;;;;;3.20;2.00;;;19.20;83.00;;;;;;5103043;28;20612;-84
2021/07/06 03:46:14;;;;;;;5.80;2.17;;;19.30;83.20;;;;;;5100323;28;20550;-84
2021/07/06 03:48:40;;;;;;;3.63;2.07;;;19.30;83.10;;;;;;5104510;28;20499;-84
2021/07/06 03:51:05;;;;;;;3.00;2.20;;;19.30;83.20;;;;;;5120885;28;20202;-84
2021/07/06 03:53:31;;;;;;;3.47;2.60;;;19.30;83.80;;;;;;5124200;28;20175;-84
2021/07/06 03:55:57;;;;;;;9.20;2.13;;;19.50;83.00;;;;;;5126897;27;20258;-83
2021/07/06 03:58:22;;;;;;;2.37;2.13;;;19.40;82.60;;;;;;5124951;28;20179;-84
2021/07/06 04:00:48;;;;;;;3.20;1.93;;;19.50;82.60;;;;;;5123685;28;20189;-83
2021/07/06 04:03:14;;;;;;;6.70;2.70;;;19.40;82.50;;;;;;5124329;28;20639;-84
2021/07/06 04:05:40;;;;;;;1.73;1.63;;;19.40;82.60;;;;;;5124658;28;20175;-84
2021/07/06 04:08:05;;;;;;;2.90;1.90;;;19.40;82.50;;;;;;5125090;28;20179;-84
2021/07/06 04:10:31;;;;;;;2.23;2.03;;;19.40;82.60;;;;;;5123284;28;20264;-83
2021/07/06 04:12:57;;;;;;;2.13;1.93;;;19.50;82.70;;;;;;5125872;28;20200;-83
2021/07/06 04:15:22;;;;;;;3.97;3.03;;;19.60;82.30;;;;;;5126880;28;20168;-83
2021/07/06 04:17:49;;;;;;;5.33;2.40;;;19.50;82.20;;;;;;5125049;28;20174;-84
2021/07/06 04:20:17;;;;;;;2.15;1.90;;;19.60;82.10;;;;;;5126332;28;20220;-84
2021/07/06 04:22:43;;;;;;;4.40;2.00;;;19.60;82.20;;;;;;5124435;28;20206;-84
2021/07/06 04:25:09;;;;;;;3.65;2.20;;;19.50;82.30;;;;;;5125058;28;20258;-83
2021/07/06 04:27:35;;;;;;;8.20;2.47;;;19.50;82.50;;;;;;5125807;28;20179;-83
2021/07/06 04:30:01;;;;;;;2.95;2.17;;;19.50;82.50;;;;;;5124689;28;20757;-83
2021/07/06 04:32:27;;;;;;;2.10;1.90;;;19.50;82.60;;;;;;5125439;28;20191;-84
2021/07/06 04:34:52;;;;;;;2.33;2.10;;;19.50;82.50;;;;;;5126543;28;20167;-84
2021/07/06 04:37:18;;;;;;;7.50;1.87;;;19.50;82.40;;;;;;5126386;28;20273;-83
2021/07/06 04:39:44;;;;;;;3.10;2.23;;;19.50;82.30;;;;;;5124290;28;20171;-84
2021/07/06 04:42:12;;;;;;;2.73;2.43;;;19.60;82.20;;;;;;5118705;28;20211;-84
2021/07/06 04:44:38;;;;;;;8.95;2.30;;;19.70;81.50;;;;;;5105344;28;20413;-83
2021/07/06 04:47:04;;;;;;;2.23;1.87;;;19.80;81.30;;;;;;5103437;28;20183;-84
2021/07/06 04:49:30;;;;;;;5.00;2.47;;;19.80;80.90;;;;;;5114670;28;20768;-84
2021/07/06 04:51:55;;;;;;;4.03;1.90;;;19.80;80.60;;;;;;5122439;28;20217;-84
2021/07/06 04:54:24;;;;;;;3.63;2.30;;;19.90;80.50;;;;;;5123198;28;20412;-84
2021/07/06 04:56:53;;;;;;;5.18;2.03;;;20.20;80.00;;;;;;5123837;28;20409;-84
2021/07/06 04:59:20;;;;;;;5.70;2.20;;;20.40;79.50;;;;;;5123626;28;20251;-85
2021/07/06 05:01:46;;;;;;;6.82;2.00;;;20.50;79.00;;;;;;5123270;28;20199;-83
2021/07/06 05:04:12;;;;;;;5.35;2.05;;;20.60;78.60;;;;;;5123707;28;20668;-83
2021/07/06 05:06:38;;;;;;;2.85;2.60;;;20.60;77.90;;;;;;5125355;28;20183;-84
2021/07/06 05:09:04;;;;;;;2.50;2.03;;;20.50;78.00;;;;;;5125989;28;20662;-83
2021/07/06 05:11:29;;;;;;;4.53;2.90;;;20.70;77.90;;;;;;5124558;28;20252;-84
2021/07/06 05:13:55;;;;;;;8.63;3.40;;;20.80;77.40;;;;;;5124534;28;20417;-84
2021/07/06 05:16:21;;;;;;;5.23;2.53;;;20.80;76.90;;;;;;5124747;28;20251;-84
2021/07/06 05:18:46;;;;;;;3.93;2.77;;;20.90;76.90;;;;;;5123903;28;20176;-83
2021/07/06 05:21:12;;;;;;;3.27;2.30;;;20.90;77.00;;;;;;5123881;28;20191;-84
2021/07/06 05:23:38;;;;;;;2.27;2.10;;;21.00;76.80;;;;;;5124361;28;20261;-84
2021/07/06 05:26:03;;;;;;;4.70;2.23;;;21.00;76.70;;;;;;5125455;28;20681;-84
2021/07/06 05:28:29;;;;;;;6.17;3.80;;;21.00;76.50;;;;;;5123656;28;20251;-84
2021/07/06 05:30:55;;;;;;;3.07;1.80;;;21.00;76.50;;;;;;5124581;28;20211;-84
2021/07/06 05:33:21;;;;;;;4.03;2.10;;;21.00;75.80;;;;;;5125631;28;20175;-84
2021/07/06 05:35:48;;;;;;;5.73;1.80;;;21.00;75.80;;;;;;5123442;28;20179;-83
2021/07/06 05:38:14;;;;;;;1.95;1.45;;;21.00;74.20;;;;;;5124767;28;20416;-84
2021/07/06 05:40:40;;;;;;;4.43;2.40;;;21.10;74.20;;;;;;5123707;28;20183;-84
2021/07/06 05:43:07;;;;;;;5.80;2.15;;;21.00;74.60;;;;;;5110172;28;20416;-84
2021/07/06 05:45:36;;;;;;;1.65;1.35;;;21.00;74.30;;;;;;5103412;28;20587;-83
2021/07/06 05:48:02;;;;;;;1.75;1.58;;;21.00;74.00;;;;;;5109955;28;20237;-84
2021/07/06 05:50:28;;;;;;;2.75;1.35;;;21.00;72.00;;;;;;5126977;28;20667;-83
2021/07/06 05:52:53;;;;;;;2.20;1.30;;;20.90;71.60;;;;;;5129434;28;20215;-85
2021/07/06 05:55:19;;;;;;;2.63;1.30;;;20.70;71.70;;;;;;5123853;28;20401;-84
2021/07/06 05:57:45;;;;;;;4.20;1.50;;;20.80;70.80;;;;;;5126648;28;20201;-84
2021/07/06 06:00:13;;;;;;;6.60;1.30;;;20.90;69.90;;;;;;5129353;28;20266;-83
2021/07/06 06:02:39;;;;;;;2.00;1.40;;;20.90;69.30;;;;;;5128050;28;20194;-84
2021/07/06 06:05:07;;;;;;;3.13;1.75;;;21.00;68.70;;;;;;5131043;28;20195;-84
2021/07/06 06:07:40;;;;;;;4.50;2.00;;;21.00;68.40;;;;;;5132584;28;20267;-84
2021/07/06 06:10:09;;;;;;;7.10;1.65;;;21.30;67.00;;;;;;5131115;28;20222;-83
2021/07/06 06:12:36;;;;;;;3.70;1.40;;;21.30;64.40;;;;;;5136833;28;20201;-84
2021/07/06 06:15:04;;;;;;;5.15;1.20;;;21.30;63.50;;;;;;5124863;28;20195;-84
2021/07/06 06:17:30;;;;;;;2.50;1.23;;;21.40;62.20;;;;;;5135997;28;20179;-84
2021/07/06 06:19:55;;;;;;;2.90;1.40;;;21.60;60.90;;;;;;5115276;28;20200;-84
2021/07/06 06:22:21;;;;;;;2.50;1.17;;;21.60;61.10;;;;;;5113993;28;20196;-84
2021/07/06 06:24:47;;;;;;;1.77;1.10;;;21.60;61.50;;;;;;5114986;28;20172;-83
2021/07/06 06:27:13;;;;;;;7.07;1.37;;;21.60;60.80;;;;;;5112700;28;20202;-84
2021/07/06 06:29:39;;;;;;;3.07;1.47;;;21.60;61.70;;;;;;5101369;28;20587;-84
2021/07/06 06:32:05;;;;;;;2.63;1.33;;;21.70;60.60;;;;;;5101924;28;20216;-83
2021/07/06 06:34:30;;;;;;;5.05;1.25;;;21.70;59.50;;;;;;5103457;28;20477;-84
2021/07/06 06:36:56;;;;;;;3.07;1.20;;;21.80;58.90;;;;;;5101741;28;20203;-85
2021/07/06 06:39:23;;;;;;;4.40;1.57;;;21.90;58.20;;;;;;5101388;28;20176;-84
2021/07/06 06:41:49;;;;;;;5.23;1.20;;;21.90;58.70;;;;;;5103194;28;20198;-84
2021/07/06 06:44:15;;;;;;;7.07;1.50;;;21.90;57.80;;;;;;5102691;28;20481;-84
2021/07/06 06:46:41;;;;;;;8.70;1.73;;;21.80;58.00;;;;;;5100495;28;20264;-84
2021/07/06 06:49:06;;;;;;;2.90;1.30;;;21.90;57.80;;;;;;5107733;28;20620;-84
2021/07/06 06:51:32;;;;;;;2.83;1.83;;;22.20;57.60;;;;;;5119938;28;20237;-84
2021/07/06 06:53:59;;;;;;;1.93;1.10;;;22.40;56.50;;;;;;5120808;28;20186;-83
2021/07/06 06:56:25;;;;;;;1.43;0.90;;;22.70;54.70;;;;;;5121104;28;20424;-84
2021/07/06 06:58:51;;;;;;;9.40;1.30;;;22.80;54.80;;;;;;5121736;28;20764;-84
2021/07/06 07:01:16;;;;;;;10.23;1.30;;;23.10;53.40;;;;;;5120463;28;20425;-84
2021/07/06 07:03:42;;;;;;;2.07;1.33;;;23.40;53.30;;;;;;5121544;28;20699;-84
2021/07/06 07:06:08;;;;;;;10.20;1.30;;;23.70;53.00;;;;;;5120311;28;20179;-84
2021/07/06 07:08:34;;;;;;;3.00;2.10;;;24.10;52.70;;;;;;5120283;28;20174;-84
2021/07/06 07:11:00;;;;;;;5.73;1.20;;;24.30;50.50;;;;;;5120744;28;20232;-84
2021/07/06 07:13:27;;;;;;;3.13;1.20;;;24.70;50.20;;;;;;5124854;28;20182;-84
2021/07/06 07:15:53;;;;;;;2.37;1.23;;;24.90;48.10;;;;;;5123468;28;20504;-84
2021/07/06 07:18:19;;;;;;;2.50;1.40;;;24.70;47.90;;;;;;5117709;28;20468;-84
2021/07/06 07:20:45;;;;;;;2.00;1.50;;;24.90;48.60;;;;;;5101021;28;20460;-85
2021/07/06 07:23:11;;;;;;;3.77;1.53;;;24.90;48.30;;;;;;5101829;28;20414;-85
2021/07/06 07:25:37;;;;;;;5.27;1.47;;;25.10;48.50;;;;;;5099383;28;20414;-84
2021/07/06 07:28:08;;;;;;;2.43;1.40;;;25.10;47.50;;;;;;5103708;28;20839;-84
2021/07/06 07:30:34;;;;;;;3.97;1.30;;;25.10;49.20;;;;;;5104307;28;20453;-84
2021/07/06 07:33:00;;;;;;;3.20;1.70;;;25.00;47.20;;;;;;5104376;28;20414;-84
2021/07/06 07:35:26;;;;;;;2.70;1.17;;;24.80;47.50;;;;;;5104490;28;20597;-85
2021/07/06 07:37:52;;;;;;;5.70;1.30;;;24.90;46.70;;;;;;5106612;28;20171;-84
2021/07/06 07:40:19;;;;;;;1.93;1.30;;;24.90;47.90;;;;;;5105220;28;20417;-85
2021/07/06 07:42:45;;;;;;;5.43;1.50;;;24.70;47.20;;;;;;5103037;28;20639;-85
2021/07/06 07:45:11;;;;;;;4.47;1.60;;;24.40;46.90;;;;;;5104041;28;20422;-85
2021/07/06 07:47:37;;;;;;;8.37;1.43;;;24.00;47.30;;;;;;5103182;28;20418;-85
2021/07/06 07:50:05;;;;;;;12.27;2.20;;;23.60;47.90;;;;;;5118120;28;20452;-85
2021/07/06 07:52:33;;;;;;;1.30;1.20;;;23.40;48.30;;;;;;5124076;28;20433;-85
2021/07/06 07:55:02;;;;;;;3.70;1.50;;;23.50;48.60;;;;;;5114817;28;20414;-85
2021/07/06 07:57:28;;;;;;;7.40;1.53;;;23.30;48.50;;;;;;5103123;28;20445;-84
2021/07/06 07:59:55;;;;;;;2.50;1.80;;;23.30;49.00;;;;;;5103483;28;20414;-85
2021/07/06 08:02:22;;;;;;;4.33;1.50;;;23.30;48.40;;;;;;5102699;28;20222;-85
2021/07/06 08:04:47;;;;;;;9.77;2.17;;;23.20;49.40;;;;;;5102874;28;20486;-85
2021/07/06 08:07:13;;;;;;;5.07;1.70;;;23.30;49.50;;;;;;5102490;28;20424;-85
2021/07/06 08:09:40;;;;;;;3.00;1.70;;;23.30;49.40;;;;;;5102599;28;20434;-84
2021/07/06 08:12:06;;;;;;;5.53;1.50;;;23.50;51.40;;;;;;5102755;28;20564;-84
2021/07/06 08:14:33;;;;;;;7.87;1.50;;;23.40;50.50;;;;;;5104543;28;20452;-84
2021/07/06 08:16:59;;;;;;;3.23;1.70;;;23.40;49.00;;;;;;5102974;28;20831;-84
2021/07/06 08:19:25;;;;;;;8.37;1.53;;;23.30;48.40;;;;;;5102528;28;20406;-83
2021/07/06 08:21:51;;;;;;;10.53;1.53;;;23.20;50.00;;;;;;5102994;28;20433;-84
2021/07/06 08:24:17;;;;;;;8.73;1.80;;;23.20;50.20;;;;;;5102071;28;20413;-84
2021/07/06 08:26:46;;;;;;;4.30;1.70;;;23.30;49.70;;;;;;5103575;28;20826;-84
2021/07/06 08:29:12;;;;;;;13.83;2.63;;;23.10;48.80;;;;;;5100825;28;20421;-84
2021/07/06 08:31:38;;;;;;;5.33;1.90;;;23.00;48.30;;;;;;5105033;28;20465;-84
2021/07/06 08:34:04;;;;;;;6.37;1.70;;;22.80;46.90;;;;;;5101633;28;20418;-84
2021/07/06 08:36:30;;;;;;;5.50;1.50;;;22.90;47.60;;;;;;5103070;28;20477;-84
2021/07/06 08:38:56;;;;;;;4.77;1.33;;;22.80;47.50;;;;;;5102355;28;20444;-84
2021/07/06 08:41:22;;;;;;;4.10;1.43;;;22.70;47.40;;;;;;5105409;28;20425;-84
2021/07/06 08:43:51;;;;;;;7.37;1.70;;;22.60;47.40;;;;;;5103713;28;20578;-84
2021/07/06 08:46:19;;;;;;;5.33;1.50;;;22.80;47.30;;;;;;5102344;28;20210;-84
2021/07/06 08:48:49;;;;;;;7.80;1.80;;;22.60;47.20;;;;;;5107481;28;20429;-84
2021/07/06 08:51:22;;;;;;;3.57;1.40;;;22.80;47.40;;;;;;5118799;28;20499;-84
2021/07/06 08:53:49;;;;;;;10.90;1.80;;;23.10;47.40;;;;;;5124897;28;20446;-85
2021/07/06 08:56:16;;;;;;;7.70;1.40;;;23.10;47.20;;;;;;5107010;28;20923;-84
2021/07/06 08:58:42;;;;;;;9.10;1.90;;;23.30;46.20;;;;;;5104337;28;20410;-84
2021/07/06 09:01:08;;;;;;;4.13;1.40;;;23.20;45.50;;;;;;5104172;28;20434;-84
2021/07/06 09:03:53;;;;;;;3.77;1.50;;;23.10;46.40;;;;;;5104508;28;20520;-85
2021/07/06 09:06:24;;;;;;;4.30;1.50;;;23.30;47.50;;;;;;5105223;28;20175;-84
2021/07/06 09:08:53;;;;;;;10.17;1.63;;;23.10;47.80;;;;;;5104741;28;20402;-84
2021/07/06 09:11:22;;;;;;;4.30;1.60;;;23.10;47.60;;;;;;5102234;28;20477;-84
2021/07/06 09:13:48;;;;;;;8.00;1.90;;;23.10;47.60;;;;;;5103187;28;20414;-84
2021/07/06 09:16:23;;;;;;;4.50;1.43;;;22.90;46.50;;;;;;5104107;28;20409;-83
2021/07/06 09:18:49;;;;;;;7.23;1.73;;;22.80;46.60;;;;;;5105445;28;20455;-84
2021/07/06 09:21:15;;;;;;;4.13;1.23;;;22.80;46.80;;;;;;5102812;28;20433;-84
2021/07/06 09:23:48;;;;;;;7.63;1.90;;;22.90;46.90;;;;;;5103993;28;20508;-84
2021/07/06 09:26:29;;;;;;;4.90;1.33;;;23.00;46.50;;;;;;5102272;28;20434;-84
2021/07/06 09:28:57;;;;;;;6.90;1.83;;;22.90;45.50;;;;;;5102380;28;20463;-84
2021/07/06 09:31:37;;;;;;;3.00;1.30;;;22.80;46.40;;;;;;5096921;28;20467;-84
2021/07/06 09:34:12;;;;;;;5.53;1.60;;;22.50;45.60;;;;;;5082457;28;20430;-84
2021/07/06 09:36:45;;;;;;;3.30;1.50;;;22.00;45.80;;;;;;5083000;28;20452;-84
2021/07/06 09:39:16;;;;;;;5.57;1.53;;;22.20;47.50;;;;;;5082987;28;20411;-84
2021/07/06 09:41:59;;;;;;;2.90;1.40;;;22.20;47.00;;;;;;5082357;28;20443;-84
2021/07/06 09:44:27;;;;;;;3.23;1.73;;;22.30;47.40;;;;;;5084315;28;20419;-84
2021/07/06 09:47:04;;;;;;;2.50;1.43;;;22.60;46.90;;;;;;5085870;28;20427;-84
2021/07/06 09:49:36;;;;;;;2.60;1.60;;;22.70;45.80;;;;;;5105292;28;20420;-84
2021/07/06 09:52:18;;;;;;;3.07;1.40;;;22.80;45.00;;;;;;5122314;28;20551;-83
2021/07/06 09:54:49;;;;;;;4.10;1.57;;;23.40;46.00;;;;;;5124175;28;20394;-84
2021/07/06 09:57:32;;;;;;;1.50;1.40;;;23.50;46.40;;;;;;5122973;28;20476;-84
2021/07/06 09:59:58;;;;;;;3.67;1.10;;;23.60;45.10;;;;;;5122552;28;20472;-84
2021/07/06 10:02:25;;;;;;;2.83;1.57;;;23.90;45.30;;;;;;5121958;28;20440;-84
2021/07/06 10:04:53;;;;;;;1.67;1.30;;;23.90;43.00;;;;;;5123642;28;20649;-84
2021/07/06 10:07:21;;;;;;;3.57;1.40;;;23.70;43.50;;;;;;5123497;27;20755;-84
2021/07/06 10:09:48;;;;;;;2.90;1.27;;;24.00;44.10;;;;;;5123903;28;20432;-83
2021/07/06 10:12:18;;;;;;;6.97;1.40;;;24.10;44.10;;;;;;5122756;28;20814;-84
2021/07/06 10:14:45;;;;;;;4.97;1.47;;;24.00;44.20;;;;;;5121799;28;20409;-84
2021/07/06 10:17:11;;;;;;;5.20;1.47;;;23.80;43.50;;;;;;5122271;28;20425;-84
2021/07/06 10:19:45;;;;;;;2.77;1.13;;;23.50;43.40;;;;;;5122475;28;20416;-84
2021/07/06 10:22:13;;;;;;;7.77;1.40;;;22.90;44.20;;;;;;5123268;28;20431;-85
2021/07/06 10:24:41;;;;;;;3.63;1.47;;;23.20;45.70;;;;;;5121531;28;20413;-83
2021/07/06 10:27:14;;;;;;;4.67;1.40;;;23.20;44.30;;;;;;5122885;28;20389;-84
2021/07/06 10:29:41;;;;;;;3.97;1.70;;;23.50;44.20;;;;;;5121799;28;20413;-84
2021/07/06 10:32:07;;;;;;;5.93;1.30;;;23.90;44.70;;;;;;5109473;28;20454;-84
2021/07/06 10:34:42;;;;;;;12.73;2.00;;;24.00;43.60;;;;;;5101997;28;20455;-85
2021/07/06 10:37:29;;;;;;;6.90;1.20;;;23.90;42.90;;;;;;5100641;28;20417;-84
2021/07/06 10:40:11;;;;;;;4.20;1.50;;;23.90;43.50;;;;;;5101311;28;20406;-84
2021/07/06 10:42:39;;;;;;;3.97;1.60;;;23.90;43.30;;;;;;5101745;28;20501;-84
2021/07/06 10:45:32;;;;;;;4.20;1.43;;;24.00;43.90;;;;;;5101551;28;20467;-84
2021/07/06 10:47:58;;;;;;;5.70;1.87;;;24.10;43.50;;;;;;5101196;28;20490;-84
2021/07/06 10:50:30;;;;;;;8.80;1.70;;;23.60;42.80;;;;;;5122957;28;20483;-84
2021/07/06 10:53:21;;;;;;;9.63;1.87;;;23.60;44.40;;;;;;5123067;28;20202;-84
2021/07/06 10:56:00;;;;;;;5.13;1.73;;;23.90;45.00;;;;;;5120163;28;20408;-84
2021/07/06 10:58:48;;;;;;;6.57;1.57;;;24.00;44.20;;;;;;5123075;28;20433;-85
2021/07/06 11:01:37;;;;;;;8.67;1.60;;;24.10;43.80;;;;;;5117268;28;20451;-85
2021/07/06 11:04:08;;;;;;;7.93;1.73;;;23.90;44.10;;;;;;5077424;28;20430;-85
2021/07/06 11:06:46;;;;;;;18.93;1.83;;;23.80;43.80;;;;;;5114571;28;20433;-85
2021/07/06 11:09:12;;;;;;;8.93;1.83;;;23.00;44.10;;;;;;5105813;28;20798;-85
2021/07/06 11:11:39;;;;;;;3.90;1.37;;;23.10;45.30;;;;;;5082909;28;20988;-85
2021/07/06 11:14:22;;;;;;;5.27;2.13;;;23.20;46.00;;;;;;5098343;28;20414;-85
2021/07/06 11:17:02;;;;;;;2.20;1.23;;;23.30;46.00;;;;;;5098683;28;20236;-84
2021/07/06 11:19:36;;;;;;;4.73;1.60;;;23.20;46.60;;;;;;5097342;28;20430;-84
2021/07/06 11:22:08;;;;;;;4.83;1.63;;;23.40;46.90;;;;;;5095459;28;20868;-85
2021/07/06 11:24:49;;;;;;;8.40;2.07;;;23.50;46.60;;;;;;5093934;28;20424;-85
2021/07/06 11:27:56;;;;;;;5.17;1.60;;;23.60;46.40;;;;;;5098706;28;20449;-86
2021/07/06 11:30:42;;;;;;;4.43;1.50;;;23.40;45.30;;;;;;5100001;28;20465;-86
2021/07/06 11:33:14;;;;;;;5.40;1.60;;;23.40;45.50;;;;;;5099510;28;20550;-86
2021/07/06 11:35:46;;;;;;;5.37;1.70;;;23.40;45.90;;;;;;5101459;28;20426;-83
2021/07/06 11:38:18;;;;;;;3.60;1.30;;;23.60;46.10;;;;;;5102947;28;20390;-85
2021/07/06 11:40:47;;;;;;;4.97;1.43;;;23.60;45.90;;;;;;5099444;28;20425;-85
2021/07/06 11:43:16;;;;;;;5.13;1.40;;;23.40;46.50;;;;;;5099504;28;20980;-85
2021/07/06 11:45:50;;;;;;;8.83;2.30;;;23.50;46.40;;;;;;5099478;28;20432;-85
2021/07/06 11:48:18;;;;;;;7.93;2.07;;;23.50;46.40;;;;;;5100034;28;20424;-86
2021/07/06 11:50:46;;;;;;;5.60;1.57;;;23.50;46.20;;;;;;5118797;28;20495;-85
2021/07/06 11:53:13;;;;;;;5.90;1.43;;;23.40;46.90;;;;;;5125387;28;20413;-85
2021/07/06 11:55:41;;;;;;;5.13;1.60;;;23.40;46.20;;;;;;5122033;28;20418;-85
2021/07/06 11:58:12;;;;;;;5.47;1.97;;;23.50;46.00;;;;;;5119808;28;20409;-86
2021/07/06 12:00:40;;;;;;;11.13;3.10;;;23.70;45.70;;;;;;5118072;28;20409;-86
2021/07/06 12:03:35;;;;;;;3.60;1.60;;;23.70;45.20;;;;;;5120287;28;20416;-86
2021/07/06 12:06:05;;;;;;;8.17;1.70;;;23.80;45.30;;;;;;5119251;28;20923;-85
2021/07/06 12:08:34;;;;;;;18.63;3.83;;;24.10;45.70;;;;;;5113969;28;20464;-85
2021/07/06 12:11:06;;;;;;;7.03;1.60;;;24.00;44.70;;;;;;5099015;28;20497;-86
2021/07/06 12:13:36;;;;;;;5.83;2.13;;;24.00;45.30;;;;;;5099452;28;20908;-86
2021/07/06 12:16:06;;;;;;;7.97;1.40;;;24.10;45.50;;;;;;5104489;28;20409;-85
2021/07/06 12:18:35;;;;;;;6.73;1.93;;;24.00;45.10;;;;;;5102841;28;20850;-85
2021/07/06 12:21:08;;;;;;;7.60;1.60;;;23.50;45.50;;;;;;5101895;28;20445;-85
2021/07/06 12:23:44;;;;;;;3.83;1.30;;;23.30;46.30;;;;;;5101943;28;20426;-86
2021/07/06 12:26:10;;;;;;;3.50;1.97;;;23.20;46.50;;;;;;5101770;28;20419;-85
2021/07/06 12:28:39;;;;;;;3.47;1.57;;;23.10;47.30;;;;;;5100911;28;20453;-85
2021/07/06 12:31:25;;;;;;;3.67;1.70;;;23.00;47.30;;;;;;5100953;28;20503;-85
2021/07/06 12:34:06;;;;;;;4.20;1.83;;;22.90;48.10;;;;;;5101345;28;20489;-85
2021/07/06 12:36:47;;;;;;;3.70;1.57;;;23.00;47.60;;;;;;5102474;28;20462;-85
2021/07/06 12:39:26;;;;;;;4.10;1.67;;;22.60;48.60;;;;;;5102325;28;20410;-83
2021/07/06 12:42:03;;;;;;;6.47;1.80;;;22.70;49.90;;;;;;5101754;28;20437;-84
2021/07/06 12:44:53;;;;;;;4.00;1.70;;;22.80;49.70;;;;;;5102623;28;20448;-83
2021/07/06 12:47:25;;;;;;;10.67;1.60;;;22.80;50.00;;;;;;5101544;28;20421;-83
2021/07/06 12:49:56;;;;;;;7.33;1.60;;;22.80;49.60;;;;;;5115888;28;20421;-83
2021/07/06 12:52:42;;;;;;;16.10;1.77;;;22.70;49.20;;;;;;5122213;28;20441;-83